Time;durP1;ratioP1;P1;durP2;ratioP2;P2;SDS_P1;SDS_P2;PMS_P1;PMS_P2;Temp;Humidity;BMP_temperature;BMP_pressure;BME280_temperature;BME280_humidity;BME280_pressure;Samples;Min_cycle;Max_cycle;Signal;HPM_P1;HPM_P2
2021/10/25 00:04:42;;;;;;;153.00;15.32;;;;;;;3.23;67.56;100490.16;10345817;28;20323;-64
2021/10/25 00:09:44;;;;;;;191.55;16.38;;;;;;;3.26;67.47;100487.50;10345638;28;20103;-63
2021/10/25 00:14:45;;;;;;;161.38;12.52;;;;;;;3.25;67.58;100487.53;10344955;28;20404;-63
2021/10/25 00:19:48;;;;;;;210.32;16.98;;;;;;;3.31;67.68;100490.00;10345477;28;20054;-63
2021/10/25 00:24:49;;;;;;;162.70;13.52;;;;;;;3.28;67.65;100484.88;10344710;28;20569;-63
2021/10/25 00:29:51;;;;;;;65.57;12.90;;;;;;;3.33;67.77;100476.16;10346763;28;20190;-63
2021/10/25 00:34:53;;;;;;;171.23;17.83;;;;;;;3.44;67.62;100475.91;10344868;28;20128;-63
2021/10/25 00:39:54;;;;;;;106.53;12.40;;;;;;;3.41;67.83;100476.00;10344592;28;20518;-63
2021/10/25 00:44:56;;;;;;;138.73;13.60;;;;;;;3.39;67.78;100478.63;10344612;28;20094;-63
2021/10/25 00:49:58;;;;;;;183.40;13.48;;;;;;;3.39;68.19;100472.59;10343714;28;20054;-64
2021/10/25 00:55:01;;;;;;;429.85;26.92;;;;;;;3.32;68.14;100473.59;10344317;28;20054;-63
2021/10/25 01:00:08;;;;;;;96.93;14.73;;;;;;;3.34;68.28;100462.34;10343745;28;20052;-63
2021/10/25 01:05:10;;;;;;;125.05;12.45;;;;;;;3.39;68.11;100472.59;10342361;28;21066;-63
2021/10/25 01:10:12;;;;;;;206.38;14.50;;;;;;;3.41;68.02;100473.41;10343923;28;20060;-63
2021/10/25 01:15:14;;;;;;;114.15;12.73;;;;;;;3.44;68.04;100463.84;10342588;28;20054;-63
2021/10/25 01:20:16;;;;;;;216.63;12.57;;;;;;;3.48;68.00;100478.41;10343415;28;20053;-63
2021/10/25 01:25:18;;;;;;;462.55;17.83;;;;;;;3.47;68.09;100473.25;10343490;28;20152;-64
2021/10/25 01:30:20;;;;;;;291.10;17.00;;;;;;;3.51;68.36;100464.56;10342880;28;20064;-63
2021/10/25 01:35:22;;;;;;;258.70;14.05;;;;;;;3.53;68.25;100466.22;10341516;28;20045;-63
2021/10/25 01:40:24;;;;;;;371.58;19.90;;;;;;;3.42;67.71;100465.59;10343490;28;20060;-63
2021/10/25 01:45:26;;;;;;;237.88;13.45;;;;;;;3.38;68.08;100461.38;10343205;28;20546;-63
2021/10/25 01:50:28;;;;;;;266.05;14.25;;;;;;;3.39;68.24;100459.66;10342704;28;20641;-64
2021/10/25 01:55:30;;;;;;;534.47;26.38;;;;;;;3.40;67.98;100461.34;10343652;28;20050;-63
2021/10/25 02:00:32;;;;;;;391.15;17.05;;;;;;;3.33;68.02;100465.81;10341244;28;20050;-63
2021/10/25 02:05:34;;;;;;;431.05;20.27;;;;;;;3.24;68.04;100457.41;10349778;28;20145;-63
2021/10/25 02:10:36;;;;;;;517.58;19.52;;;;;;;3.24;67.96;100462.56;10352383;28;20052;-63
2021/10/25 02:15:38;;;;;;;888.35;33.25;;;;;;;3.08;67.72;100464.63;10357854;28;20279;-63
2021/10/25 02:20:41;;;;;;;373.77;16.52;;;;;;;3.01;68.07;100463.91;10357290;28;20132;-63
2021/10/25 02:25:45;;;;;;;258.42;13.30;;;;;;;3.08;68.48;100454.28;10357033;28;20060;-63
2021/10/25 02:30:47;;;;;;;493.65;20.88;;;;;;;3.07;68.42;100458.59;10357449;28;20120;-63
2021/10/25 02:35:50;;;;;;;633.08;22.15;;;;;;;3.13;68.24;100444.69;10356741;28;20208;-63
2021/10/25 02:40:53;;;;;;;952.88;36.60;;;;;;;3.02;67.86;100449.25;10356307;28;20054;-63
2021/10/25 02:45:54;;;;;;;810.00;28.20;;;;;;;2.85;68.36;100443.56;10356342;28;20050;-63
2021/10/25 02:50:56;;;;;;;1278.00;41.40;;;;;;;2.80;68.19;100438.53;10354849;28;20041;-63
2021/10/25 02:55:58;;;;;;;487.23;16.70;;;;;;;2.61;68.69;100437.19;10356675;28;20056;-63
2021/10/25 03:01:00;;;;;;;796.42;26.13;;;;;;;2.63;68.53;100440.56;10356075;28;20042;-63
2021/10/25 03:06:02;;;;;;;526.67;20.33;;;;;;;2.61;68.41;100434.59;10351188;28;20053;-64
2021/10/25 03:11:04;;;;;;;500.40;17.88;;;;;;;2.69;68.57;100440.47;10347185;28;20045;-63
2021/10/25 03:16:06;;;;;;;484.60;23.40;;;;;;;2.79;68.34;100441.13;10348702;28;20422;-63
2021/10/25 03:21:08;;;;;;;328.92;14.63;;;;;;;2.82;68.44;100451.41;10348909;28;20442;-63
2021/10/25 03:26:09;;;;;;;560.92;25.77;;;;;;;2.94;68.23;100454.59;10348397;28;20046;-63
2021/10/25 03:31:11;;;;;;;453.23;21.20;;;;;;;2.78;68.36;100448.03;10347209;28;20141;-63
2021/10/25 03:36:16;;;;;;;334.75;16.58;;;;;;;2.76;68.66;100452.38;10347479;28;20050;-63
2021/10/25 03:41:29;;;;;;;373.17;17.58;;;;;;;2.86;68.76;100442.72;10346954;28;20136;-63
2021/10/25 03:51:33;;;;;;;462.83;17.88;;;;;;;2.69;68.36;100444.75;10346890;28;20050;-63
2021/10/25 04:28:26;;;;;;;272.05;13.20;;;;;;;2.87;68.82;100431.47;10346192;28;20054;-63
2021/10/25 04:33:28;;;;;;;422.38;16.27;;;;;;;2.98;68.27;100437.28;10344303;28;20551;-63
2021/10/25 04:38:30;;;;;;;492.23;21.42;;;;;;;2.91;68.22;100430.53;10345835;28;20046;-63
2021/10/25 04:43:32;;;;;;;416.50;19.40;;;;;;;2.95;68.26;100421.84;10366358;28;20050;-63
2021/10/25 04:48:35;;;;;;;358.25;17.65;;;;;;;3.07;68.18;100415.56;10345154;28;20053;-63
2021/10/25 04:53:37;;;;;;;676.08;36.53;;;;;;;3.09;67.82;100411.22;10345350;28;20064;-63
2021/10/25 04:58:39;;;;;;;601.50;25.77;;;;;;;2.72;68.00;100409.41;10344736;28;20046;-63
2021/10/25 05:03:41;;;;;;;289.58;14.07;;;;;;;2.75;68.51;100408.47;10344225;28;20588;-63
2021/10/25 05:08:43;;;;;;;418.92;22.38;;;;;;;2.89;68.30;100402.16;10343164;28;20107;-63
2021/10/25 05:13:44;;;;;;;439.50;19.33;;;;;;;2.74;67.97;100392.16;10343921;28;20057;-63
2021/10/25 05:18:46;;;;;;;441.55;22.05;;;;;;;2.56;68.21;100395.09;10367498;28;20049;-63
2021/10/25 05:23:48;;;;;;;374.38;18.20;;;;;;;2.60;68.63;100394.16;10343736;28;20052;-63
2021/10/25 05:28:50;;;;;;;222.50;15.07;;;;;;;2.65;68.68;100402.66;10354877;28;20479;-63
2021/10/25 05:33:52;;;;;;;199.40;14.10;;;;;;;2.74;68.71;100397.31;10344752;28;20124;-63
2021/10/25 05:38:54;;;;;;;237.95;13.90;;;;;;;2.80;68.53;100401.50;10343184;28;20536;-63
2021/10/25 05:43:56;;;;;;;412.15;20.92;;;;;;;2.77;68.51;100396.38;10345510;28;20060;-63
2021/10/25 05:48:59;;;;;;;588.10;21.90;;;;;;;2.57;68.64;100391.66;10351842;28;20053;-63
2021/10/25 05:54:04;;;;;;;905.45;42.55;;;;;;;2.58;68.55;100385.59;10352350;28;20046;-63
2021/10/25 05:59:06;;;;;;;727.35;31.50;;;;;;;2.65;68.65;100392.34;10351764;28;20799;-63
2021/10/25 06:04:10;;;;;;;352.27;16.15;;;;;;;2.75;68.51;100400.75;10350911;28;20048;-63
2021/10/25 06:09:11;;;;;;;404.55;19.42;;;;;;;2.78;68.50;100393.81;10351237;28;20050;-63
2021/10/25 06:14:15;;;;;;;489.38;25.25;;;;;;;2.58;68.35;100398.50;10350840;28;20064;-63
2021/10/25 06:19:20;;;;;;;145.07;12.50;;;;;;;2.47;68.88;100408.19;10350529;28;20140;-63
2021/10/25 06:24:21;;;;;;;310.73;19.13;;;;;;;2.48;68.62;100394.41;10376588;28;20046;-63
2021/10/25 06:29:23;;;;;;;451.05;20.50;;;;;;;2.36;68.47;100398.97;10350302;28;20656;-63
2021/10/25 06:34:27;;;;;;;230.20;16.27;;;;;;;2.33;68.52;100405.03;10350682;28;20054;-63
2021/10/25 06:39:40;;;;;;;269.13;20.67;;;;;;;2.47;68.54;100397.00;10349224;28;20062;-63
2021/10/25 06:49:52;;;;;;;257.25;17.23;;;;;;;2.48;68.62;100407.28;10349260;28;20077;-63
2021/10/25 06:54:54;;;;;;;217.23;14.95;;;;;;;2.71;68.40;100417.19;10349099;28;20133;-64
2021/10/25 06:59:56;;;;;;;274.75;16.42;;;;;;;2.76;68.10;100425.69;10349251;28;20889;-63
2021/10/25 07:04:57;;;;;;;334.15;19.65;;;;;;;2.84;68.11;100432.41;10352150;28;20053;-64
2021/10/25 07:09:59;;;;;;;362.85;15.60;;;;;;;2.97;67.87;100448.50;10349118;28;20414;-64
2021/10/25 07:15:03;;;;;;;990.55;45.53;;;;;;;2.93;67.45;100447.72;10348590;28;20286;-64
2021/10/25 08:12:51;;;;;;;127.00;13.05;;;;;;;3.44;67.34;100468.16;10346282;28;20598;-73
2021/10/25 08:17:57;;;;;;;539.50;29.17;;;;;;;3.54;66.27;100473.09;10341233;28;20431;-73
2021/10/25 08:22:59;;;;;;;768.50;39.60;;;;;;;3.29;66.38;100474.53;10353338;28;20409;-73
2021/10/25 08:28:06;;;;;;;273.05;16.40;;;;;;;3.50;66.85;100466.28;10345797;28;20523;-74
2021/10/25 08:43:34;;;;;;;531.67;28.97;;;;;;;3.88;66.12;100459.41;10344177;28;20159;-73
2021/10/25 08:48:42;;;;;;;449.08;24.02;;;;;;;4.20;65.92;100451.69;10344030;28;20054;-74
2021/10/25 08:53:44;;;;;;;195.27;13.20;;;;;;;4.29;65.67;100457.47;10344157;28;20916;-73
2021/10/25 08:58:53;;;;;;;177.05;14.32;;;;;;;4.32;65.53;100449.63;10344065;28;20046;-73
2021/10/25 09:04:07;;;;;;;199.63;14.63;;;;;;;4.05;66.04;100449.50;10344995;28;20617;-74
2021/10/25 09:09:08;;;;;;;310.08;15.68;;;;;;;4.24;65.75;100449.00;10343782;28;20081;-73
2021/10/25 09:14:15;;;;;;;318.75;18.52;;;;;;;4.51;65.71;100440.50;10339488;28;20490;-75
2021/10/25 09:19:18;;;;;;;157.88;13.88;;;;;;;4.55;65.40;100436.06;10342779;28;20049;-73
2021/10/25 09:24:24;;;;;;;162.95;13.40;;;;;;;4.34;65.47;100424.56;10350436;28;20135;-75
2021/10/25 09:29:30;;;;;;;552.35;28.67;;;;;;;4.24;65.01;100430.00;10356695;28;20061;-73
2021/10/25 09:34:46;;;;;;;457.02;25.85;;;;;;;4.62;64.40;100420.31;10342536;28;20068;-72
2021/10/25 09:39:55;;;;;;;301.10;18.08;;;;;;;4.40;65.01;100408.84;10344990;28;20498;-73
2021/10/25 09:50:23;;;;;;;440.98;22.13;;;;;;;4.89;64.33;100412.66;10343758;28;20053;-75
2021/10/25 09:55:25;;;;;;;568.85;34.10;;;;;;;4.72;64.50;100407.94;10357050;28;20076;-75
2021/10/25 10:00:27;;;;;;;90.32;14.93;;;;;;;5.01;64.56;100401.91;10358268;28;20041;-74
2021/10/25 10:05:35;;;;;;;393.05;21.88;;;;;;;5.15;63.75;100399.75;10340678;28;20467;-73
2021/10/25 10:10:41;;;;;;;463.30;23.90;;;;;;;5.08;64.04;100393.09;10343130;28;20060;-73
2021/10/25 10:15:43;;;;;;;617.10;37.63;;;;;;;4.96;64.29;100390.84;10350844;28;20056;-75
2021/10/25 10:20:49;;;;;;;190.82;22.25;;;;;;;4.72;64.85;100401.03;10342684;28;20054;-75
2021/10/25 10:25:57;;;;;;;159.27;25.83;;;;;;;4.63;65.73;100398.72;10345038;28;20171;-73
2021/10/25 10:31:10;;;;;;;47.25;21.42;;;;;;;4.89;65.72;100394.50;10345935;28;20064;-75
2021/10/25 10:36:17;;;;;;;152.65;24.83;;;;;;;5.00;64.91;100388.13;10348243;28;20406;-75
2021/10/25 10:41:22;;;;;;;78.80;24.95;;;;;;;5.24;64.70;100378.75;10349188;28;20054;-75
2021/10/25 10:46:24;;;;;;;87.07;24.10;;;;;;;5.46;64.53;100382.38;10346609;28;20141;-76
2021/10/25 10:51:28;;;;;;;105.80;27.80;;;;;;;5.65;64.17;100378.31;10348664;28;20050;-75
2021/10/25 10:56:36;;;;;;;100.45;29.55;;;;;;;5.68;63.81;100367.81;10349379;28;20045;-75
2021/10/25 11:01:38;;;;;;;51.40;24.27;;;;;;;6.00;63.96;100364.97;10351555;28;21107;-75
2021/10/25 11:06:40;;;;;;;52.92;27.50;;;;;;;6.09;63.31;100364.66;10345570;28;20049;-75
2021/10/25 11:11:44;;;;;;;113.15;28.92;;;;;;;6.24;62.93;100361.56;10371620;28;20061;-77
2021/10/25 11:17:07;;;;;;;47.70;26.90;;;;;;;6.22;63.28;100357.31;10347816;28;20060;-76
2021/10/25 11:22:09;;;;;;;29.58;20.60;;;;;;;6.26;63.74;100353.72;10346761;28;20058;-75
2021/10/25 11:27:11;;;;;;;30.08;22.38;;;;;;;6.74;62.88;100343.28;10347450;28;20044;-74
2021/10/25 11:32:13;;;;;;;35.58;24.00;;;;;;;6.76;62.34;100338.88;10345964;28;20054;-74
2021/10/25 11:37:19;;;;;;;39.28;27.67;;;;;;;6.56;63.00;100323.19;10350941;28;20045;-75
2021/10/25 11:42:27;;;;;;;36.92;25.38;;;;;;;6.61;62.96;100319.53;10353516;28;20068;-76
2021/10/25 11:47:35;;;;;;;29.77;22.95;;;;;;;6.55;63.35;100316.31;10345422;28;20056;-75
2021/10/25 11:52:54;;;;;;;31.10;23.48;;;;;;;6.53;64.00;100316.34;10346613;28;20089;-76
2021/10/25 11:58:03;;;;;;;23.05;18.55;;;;;;;6.63;63.68;100303.88;10344027;28;20121;-75
2021/10/25 12:03:13;;;;;;;21.00;16.92;;;;;;;6.88;63.84;100291.59;10348561;28;20049;-75
2021/10/25 12:08:17;;;;;;;23.33;18.17;;;;;;;7.16;63.84;100289.63;10347135;28;20119;-75
2021/10/25 12:13:18;;;;;;;19.65;16.05;;;;;;;7.38;63.05;100282.66;10346775;28;20165;-76
2021/10/25 12:18:21;;;;;;;19.63;16.02;;;;;;;7.59;62.59;100266.13;10347407;28;20092;-77
2021/10/25 12:23:24;;;;;;;21.73;16.60;;;;;;;7.87;62.34;100250.19;10348683;28;20046;-79
2021/10/25 12:28:27;;;;;;;20.98;15.95;;;;;;;8.20;62.13;100248.72;10352647;28;20058;-78
2021/10/25 12:33:29;;;;;;;18.75;14.50;;;;;;;8.44;61.48;100244.16;10345931;28;20153;-77
2021/10/25 12:38:39;;;;;;;18.67;13.50;;;;;;;8.59;60.43;100235.59;10346218;28;20052;-77
2021/10/25 12:43:43;;;;;;;16.85;12.65;;;;;;;8.78;61.14;100229.47;10345935;28;20046;-79
2021/10/25 12:48:46;;;;;;;17.85;13.27;;;;;;;8.92;60.76;100220.13;10354037;28;20080;-77
2021/10/25 12:53:51;;;;;;;15.30;12.05;;;;;;;9.19;60.10;100218.78;10349703;28;20093;-75
2021/10/25 12:59:08;;;;;;;14.07;11.15;;;;;;;9.16;60.42;100209.34;10344240;28;20136;-74
2021/10/25 13:04:10;;;;;;;17.15;12.63;;;;;;;9.32;60.13;100199.81;10345304;28;21056;-75
2021/10/25 13:09:11;;;;;;;17.70;13.02;;;;;;;9.61;59.42;100206.19;10344858;28;20056;-75
2021/10/25 13:14:13;;;;;;;15.10;11.88;;;;;;;9.77;59.03;100194.03;10344253;28;20058;-74
2021/10/25 13:19:17;;;;;;;13.38;11.57;;;;;;;9.87;59.20;100183.97;10344936;28;20050;-74
2021/10/25 13:24:19;;;;;;;15.57;11.43;;;;;;;10.12;58.85;100179.13;10344835;28;20053;-76
2021/10/25 13:29:22;;;;;;;15.00;10.93;;;;;;;10.29;58.86;100176.44;10343259;28;20049;-73
2021/10/25 13:34:24;;;;;;;16.45;10.18;;;;;;;10.43;58.40;100171.28;10343634;28;20064;-74
2021/10/25 13:39:26;;;;;;;12.63;10.10;;;;;;;10.72;57.75;100161.81;10341655;28;20046;-76
2021/10/25 13:44:28;;;;;;;11.20;9.32;;;;;;;10.82;57.28;100150.75;10349665;28;20061;-74
2021/10/25 13:49:34;;;;;;;15.13;10.30;;;;;;;10.89;57.33;100143.41;10346176;28;20062;-75
2021/10/25 13:54:37;;;;;;;13.13;9.30;;;;;;;10.94;57.02;100143.97;10343586;28;20048;-75
2021/10/25 13:59:39;;;;;;;12.20;9.07;;;;;;;10.90;57.65;100140.69;10350285;28;20053;-75
2021/10/25 14:04:49;;;;;;;14.82;10.50;;;;;;;10.81;58.22;100133.34;10343969;28;20306;-75
2021/10/25 14:09:56;;;;;;;15.18;10.60;;;;;;;10.84;58.49;100127.97;10349764;28;20049;-73
2021/10/25 14:15:34;;;;;;;14.07;10.15;;;;;;;11.14;58.01;100123.59;10352394;28;20058;-75
2021/10/25 14:20:28;;;;;;;12.50;9.27;;;;;;;11.32;57.72;100128.69;10364437;28;20050;-74
2021/10/25 14:25:30;;;;;;;14.15;9.95;;;;;;;11.37;57.46;100126.59;10360576;28;20056;-75
2021/10/25 14:30:33;;;;;;;18.80;10.95;;;;;;;11.37;57.89;100127.47;10348933;28;20054;-74
2021/10/25 14:35:36;;;;;;;17.35;10.48;;;;;;;11.56;58.15;100124.56;10347692;28;20059;-77
2021/10/25 14:46:08;;;;;;;12.73;9.80;;;;;;;11.69;57.53;100122.88;10366368;28;20089;-76
2021/10/25 14:56:30;;;;;;;12.35;9.80;;;;;;;11.67;58.06;100114.28;10348310;28;20053;-76
2021/10/25 15:01:32;;;;;;;16.20;9.05;;;;;;;11.71;58.07;100108.75;10350911;28;20052;-77
2021/10/25 15:06:35;;;;;;;13.85;9.82;;;;;;;11.53;58.52;100104.66;10364448;28;20056;-74
2021/10/25 15:11:37;;;;;;;15.00;10.48;;;;;;;11.39;58.90;100109.03;10346883;28;20104;-74
2021/10/25 15:16:38;;;;;;;15.38;10.75;;;;;;;11.25;59.05;100107.25;10344480;28;20049;-70
2021/10/25 15:21:41;;;;;;;17.10;13.50;;;;;;;10.93;59.82;100110.91;10346159;28;20058;-71
2021/10/25 15:26:48;;;;;;;18.42;14.55;;;;;;;10.61;60.17;100112.72;10346333;28;20064;-74
2021/10/25 15:31:50;;;;;;;15.60;12.63;;;;;;;10.36;60.69;100113.25;10345805;28;20076;-75
2021/10/25 15:36:52;;;;;;;16.00;12.45;;;;;;;10.12;61.16;100113.78;10343843;28;20159;-75
2021/10/25 15:41:54;;;;;;;16.02;12.68;;;;;;;9.97;61.54;100105.00;10349323;28;20578;-75
2021/10/25 15:46:55;;;;;;;18.13;13.05;;;;;;;9.83;61.63;100096.25;10343999;28;20050;-76
2021/10/25 15:51:58;;;;;;;15.50;13.15;;;;;;;9.56;62.58;100101.16;10343744;28;20137;-76
2021/10/25 15:57:00;;;;;;;16.15;12.93;;;;;;;9.33;63.03;100102.34;10349337;28;20129;-76
2021/10/25 16:02:03;;;;;;;17.90;14.07;;;;;;;9.13;63.96;100096.47;10342573;28;20538;-76
2021/10/25 16:07:06;;;;;;;16.10;14.32;;;;;;;8.94;64.35;100095.69;10342901;28;20418;-76
2021/10/25 16:12:09;;;;;;;20.17;15.15;;;;;;;8.78;65.05;100095.63;10342766;28;20054;-75
2021/10/25 16:17:13;;;;;;;17.05;14.23;;;;;;;8.62;65.20;100095.56;10343525;28;20499;-74
2021/10/25 16:22:15;;;;;;;23.95;16.52;;;;;;;8.47;65.75;100100.66;10344409;28;20490;-75
2021/10/25 16:27:17;;;;;;;19.42;15.40;;;;;;;8.33;66.10;100118.72;10341348;28;20491;-74
2021/10/25 16:32:19;;;;;;;19.52;15.23;;;;;;;8.22;66.41;100113.19;10342505;28;20058;-73
2021/10/25 16:37:21;;;;;;;18.83;14.43;;;;;;;8.21;66.50;100121.91;10341387;28;20050;-74
2021/10/25 16:42:23;;;;;;;21.65;16.17;;;;;;;8.12;66.67;100128.38;10343262;28;20203;-75
2021/10/25 16:47:25;;;;;;;24.70;20.48;;;;;;;7.96;66.97;100128.22;10339652;28;20072;-74
2021/10/25 17:03:14;;;;;;;19.02;13.90;;;;;;;7.51;67.62;100158.91;10342355;28;20074;-75
2021/10/25 17:13:37;;;;;;;18.60;12.52;;;;;;;7.46;68.08;100160.03;10348569;28;20103;-75
2021/10/25 17:18:39;;;;;;;15.27;11.82;;;;;;;7.46;68.12;100163.47;10346690;28;20417;-75
2021/10/25 17:23:45;;;;;;;17.02;12.60;;;;;;;7.48;67.97;100179.00;10338923;28;20494;-74
2021/10/25 17:28:46;;;;;;;14.65;11.07;;;;;;;7.41;68.00;100178.44;10340305;28;20068;-74
2021/10/25 17:33:49;;;;;;;17.10;13.15;;;;;;;7.42;68.13;100174.94;10354756;28;20046;-75
2021/10/25 17:38:52;;;;;;;15.40;12.25;;;;;;;7.48;68.20;100174.66;10382863;28;20049;-74
2021/10/25 17:43:55;;;;;;;15.98;11.55;;;;;;;7.63;68.19;100175.75;10367498;28;20514;-74
2021/10/25 17:48:59;;;;;;;20.75;14.30;;;;;;;7.80;68.08;100176.69;10347066;28;20480;-65
2021/10/25 17:54:00;;;;;;;20.95;12.52;;;;;;;7.90;67.93;100177.13;10362804;28;20138;-66
2021/10/25 17:59:03;;;;;;;18.40;12.35;;;;;;;8.01;67.89;100178.34;10373549;28;20786;-66
2021/10/25 18:04:05;;;;;;;18.40;13.65;;;;;;;8.12;67.67;100177.88;10358202;28;20050;-66
2021/10/25 18:09:07;;;;;;;17.27;12.85;;;;;;;8.22;67.38;100184.34;10356504;28;20089;-66
2021/10/25 18:14:09;;;;;;;15.48;11.48;;;;;;;8.28;67.32;100184.06;10349433;28;20079;-66
2021/10/25 18:19:13;;;;;;;22.27;15.82;;;;;;;8.36;67.09;100188.94;10349842;28;20048;-66
2021/10/25 18:24:17;;;;;;;25.92;14.52;;;;;;;8.38;66.86;100179.28;10349406;28;20209;-65
2021/10/25 18:29:20;;;;;;;14.52;11.60;;;;;;;8.41;67.11;100189.56;10348956;28;20403;-66
2021/10/25 18:34:22;;;;;;;16.98;12.50;;;;;;;8.41;67.00;100184.34;10346567;28;20495;-65
2021/10/25 18:39:25;;;;;;;19.98;14.00;;;;;;;8.39;66.99;100179.22;10348729;28;20125;-66
2021/10/25 18:44:29;;;;;;;19.80;12.55;;;;;;;8.39;67.03;100179.22;10348657;28;20457;-66
2021/10/25 18:49:33;;;;;;;14.63;11.40;;;;;;;8.39;67.04;100173.13;10363102;28;20099;-65
2021/10/25 18:54:35;;;;;;;16.52;11.15;;;;;;;8.35;67.24;100175.06;10363886;28;20050;-65
2021/10/25 18:59:37;;;;;;;13.18;10.10;;;;;;;8.34;67.53;100181.19;10348903;28;20192;-66
2021/10/25 19:04:40;;;;;;;12.93;10.05;;;;;;;8.33;67.59;100187.31;10343708;28;20185;-66
2021/10/25 19:09:41;;;;;;;14.88;10.38;;;;;;;8.36;67.52;100179.38;10355224;28;20076;-67
2021/10/25 19:14:43;;;;;;;16.10;11.48;;;;;;;8.43;67.46;100187.72;10346065;28;20224;-67
2021/10/25 19:19:45;;;;;;;13.57;10.18;;;;;;;8.44;67.27;100192.03;10350822;28;20042;-67
2021/10/25 19:24:46;;;;;;;15.60;10.65;;;;;;;8.44;67.52;100189.44;10380871;28;20498;-66
2021/10/25 19:29:48;;;;;;;17.52;11.27;;;;;;;8.46;67.58;100196.25;10347271;28;20045;-67
2021/10/25 19:34:51;;;;;;;20.05;15.48;;;;;;;8.52;67.41;100200.34;10346115;28;20817;-67
2021/10/25 19:39:54;;;;;;;21.10;14.13;;;;;;;8.59;67.46;100196.50;10346452;28;20331;-66
2021/10/25 19:44:55;;;;;;;18.25;14.27;;;;;;;8.55;67.20;100198.41;10347430;28;20046;-67
2021/10/25 19:49:57;;;;;;;19.52;13.38;;;;;;;8.47;67.46;100199.69;10355279;28;20391;-67
2021/10/25 19:54:59;;;;;;;16.25;11.35;;;;;;;8.44;67.50;100199.84;10345790;28;20046;-67
2021/10/25 20:00:06;;;;;;;15.70;11.68;;;;;;;8.51;67.45;100204.69;10347344;28;20057;-67
2021/10/25 20:05:09;;;;;;;17.15;12.25;;;;;;;8.52;67.48;100208.16;10345851;28;20060;-67
2021/10/25 20:10:12;;;;;;;20.35;14.65;;;;;;;8.51;67.37;100214.28;10346285;28;20525;-67
2021/10/25 20:15:14;;;;;;;17.48;12.50;;;;;;;8.52;67.62;100208.16;10372296;28;20076;-67
2021/10/25 20:20:16;;;;;;;16.35;12.68;;;;;;;8.59;67.73;100205.19;10344723;28;20049;-68
2021/10/25 20:25:22;;;;;;;22.73;19.10;;;;;;;8.54;67.71;100214.13;10341649;28;20414;-67
2021/10/25 20:30:24;;;;;;;29.80;21.63;;;;;;;8.61;67.86;100224.19;10340155;28;20058;-67
2021/10/25 20:35:26;;;;;;;23.30;16.27;;;;;;;8.65;67.71;100220.53;10342066;28;20049;-67
2021/10/25 20:40:28;;;;;;;27.67;20.80;;;;;;;8.56;68.01;100214.91;10395495;28;20083;-68
2021/10/25 20:45:30;;;;;;;20.08;15.80;;;;;;;8.50;68.05;100225.63;10352531;28;20050;-67
2021/10/25 20:50:32;;;;;;;19.65;13.85;;;;;;;8.34;68.52;100214.22;10342394;28;20135;-68
2021/10/25 20:55:33;;;;;;;15.93;11.50;;;;;;;8.30;69.08;100212.69;10343916;28;20049;-68
2021/10/25 21:00:36;;;;;;;17.25;11.75;;;;;;;8.47;68.83;100215.31;10342973;28;20050;-68
2021/10/25 21:05:41;;;;;;;28.25;18.27;;;;;;;8.32;69.39;100218.66;10342800;28;20065;-67
2021/10/25 21:10:42;;;;;;;21.50;16.70;;;;;;;8.31;69.49;100230.00;10341303;28;20509;-67
2021/10/25 21:15:46;;;;;;;25.80;17.80;;;;;;;8.33;69.72;100229.00;10342301;28;20050;-67
2021/10/25 21:20:47;;;;;;;28.15;20.50;;;;;;;8.31;69.77;100230.00;10343863;28;20802;-68
2021/10/25 21:25:49;;;;;;;29.67;21.27;;;;;;;8.23;70.68;100232.09;10342702;28;20046;-68
2021/10/25 21:30:51;;;;;;;29.45;19.05;;;;;;;7.94;71.17;100238.56;10341413;28;20056;-68
2021/10/25 21:35:53;;;;;;;29.70;20.20;;;;;;;7.90;71.32;100237.88;10340922;28;20096;-67
2021/10/25 21:40:54;;;;;;;28.90;21.35;;;;;;;8.08;70.71;100243.19;10328477;28;20046;-68
2021/10/25 21:45:56;;;;;;;26.73;19.45;;;;;;;8.02;70.75;100237.31;10343205;28;20509;-67
2021/10/25 21:50:58;;;;;;;34.65;25.17;;;;;;;8.07;70.38;100234.53;10342099;28;20709;-67
2021/10/25 21:56:00;;;;;;;32.22;23.00;;;;;;;8.00;70.09;100236.53;10342278;28;20041;-67
2021/10/25 22:01:03;;;;;;;39.53;25.80;;;;;;;7.96;69.98;100240.19;10341125;28;20592;-68
2021/10/25 22:06:04;;;;;;;30.90;23.77;;;;;;;7.79;70.89;100245.28;10341725;28;20301;-68
2021/10/25 22:11:06;;;;;;;46.95;30.00;;;;;;;7.68;71.08;100252.72;10341234;28;20054;-67
2021/10/25 22:16:08;;;;;;;59.58;32.65;;;;;;;7.81;70.95;100246.06;10341833;28;20061;-66
2021/10/25 22:21:10;;;;;;;25.13;17.55;;;;;;;7.92;70.65;100237.78;10341172;28;20945;-67
2021/10/25 22:26:12;;;;;;;25.23;19.27;;;;;;;7.98;70.77;100246.19;10340429;28;20742;-67
2021/10/25 22:31:14;;;;;;;24.38;17.98;;;;;;;8.01;70.53;100245.22;10349892;28;20533;-67
2021/10/25 22:36:16;;;;;;;28.42;21.95;;;;;;;8.05;70.53;100249.38;10348088;28;20049;-67
2021/10/25 22:41:17;;;;;;;31.73;23.77;;;;;;;8.18;70.47;100247.09;10347844;28;20437;-66
2021/10/25 22:46:19;;;;;;;32.58;25.02;;;;;;;8.36;70.13;100246.28;10348444;28;20611;-66
2021/10/25 22:51:21;;;;;;;28.38;22.63;;;;;;;8.45;70.00;100251.03;10348781;28;20057;-67
2021/10/25 22:56:23;;;;;;;31.02;21.85;;;;;;;8.60;69.91;100242.53;10347517;28;21018;-67
2021/10/25 23:01:25;;;;;;;35.45;24.60;;;;;;;8.69;69.80;100242.94;10348196;28;20053;-67
2021/10/25 23:06:27;;;;;;;28.88;19.52;;;;;;;8.77;69.68;100234.78;10347817;28;20054;-67
2021/10/25 23:11:29;;;;;;;25.92;18.38;;;;;;;8.78;69.67;100250.34;10347338;28;20434;-66
2021/10/25 23:16:31;;;;;;;27.77;20.52;;;;;;;8.86;69.57;100247.34;10347488;28;20075;-66
2021/10/25 23:21:33;;;;;;;29.25;22.42;;;;;;;8.77;70.06;100255.63;10347745;28;20051;-67
2021/10/25 23:26:35;;;;;;;30.98;22.75;;;;;;;8.82;69.94;100249.28;10347911;28;20050;-66
2021/10/25 23:31:37;;;;;;;29.20;20.10;;;;;;;8.89;69.84;100254.19;10346642;28;20057;-66
2021/10/25 23:36:42;;;;;;;35.20;25.08;;;;;;;8.94;69.72;100257.41;10346765;28;20064;-66
2021/10/25 23:41:49;;;;;;;36.53;26.50;;;;;;;8.97;69.61;100249.47;10345645;28;20136;-66
2021/10/25 23:46:51;;;;;;;30.52;22.50;;;;;;;8.85;69.58;100253.50;10346651;28;20050;-67
2021/10/25 23:51:52;;;;;;;29.60;22.55;;;;;;;8.75;69.80;100250.47;10343814;28;20084;-67
2021/10/25 23:56:54;;;;;;;26.40;17.85;;;;;;;8.87;70.07;100254.28;10344835;28;20056;-67
